sensor_id;sensor_type;location;lat;lon;timestamp;pressure;altitude;pressure_sealevel;temperature;humidity
59190;BME280;50749;51.636;4.948;2022-12-18T00:01:18;102842.69;;;16.86;45.32
59190;BME280;50749;51.636;4.948;2022-12-18T00:03:45;102849.59;;;16.84;44.72
59190;BME280;50749;51.636;4.948;2022-12-18T00:06:11;102850.72;;;16.83;45.08
59190;BME280;50749;51.636;4.948;2022-12-18T00:08:37;102834.44;;;16.81;44.77
59190;BME280;50749;51.636;4.948;2022-12-18T00:11:05;102836.16;;;16.77;45.00
59190;BME280;50749;51.636;4.948;2022-12-18T00:13:31;102835.34;;;16.77;44.73
59190;BME280;50749;51.636;4.948;2022-12-18T00:16:06;102827.38;;;16.75;44.67
59190;BME280;50749;51.636;4.948;2022-12-18T00:18:34;102822.13;;;16.74;44.69
59190;BME280;50749;51.636;4.948;2022-12-18T00:21:02;102817.72;;;16.72;44.65
59190;BME280;50749;51.636;4.948;2022-12-18T00:23:30;102819.97;;;16.70;44.58
59190;BME280;50749;51.636;4.948;2022-12-18T00:26:09;102814.75;;;16.69;44.89
59190;BME280;50749;51.636;4.948;2022-12-18T00:28:35;102810.66;;;16.66;44.91
59190;BME280;50749;51.636;4.948;2022-12-18T00:31:02;102804.31;;;16.66;44.57
59190;BME280;50749;51.636;4.948;2022-12-18T00:33:29;102807.41;;;16.64;44.46
59190;BME280;50749;51.636;4.948;2022-12-18T00:35:54;102806.84;;;16.62;44.77
59190;BME280;50749;51.636;4.948;2022-12-18T00:38:25;102808.28;;;16.60;44.59
59190;BME280;50749;51.636;4.948;2022-12-18T00:40:51;102811.06;;;16.60;44.65
59190;BME280;50749;51.636;4.948;2022-12-18T00:43:17;102802.25;;;16.58;44.31
59190;BME280;50749;51.636;4.948;2022-12-18T00:45:43;102796.19;;;16.56;44.64
59190;BME280;50749;51.636;4.948;2022-12-18T00:48:10;102791.31;;;16.52;44.40
59190;BME280;50749;51.636;4.948;2022-12-18T00:50:35;102794.06;;;16.52;44.25
59190;BME280;50749;51.636;4.948;2022-12-18T00:53:01;102796.28;;;16.50;44.45
59190;BME280;50749;51.636;4.948;2022-12-18T00:55:27;102800.19;;;16.49;44.69
59190;BME280;50749;51.636;4.948;2022-12-18T00:57:53;102793.81;;;16.49;44.46
59190;BME280;50749;51.636;4.948;2022-12-18T01:00:18;102799.13;;;16.45;44.60
59190;BME280;50749;51.636;4.948;2022-12-18T01:02:45;102799.97;;;16.46;44.38
59190;BME280;50749;51.636;4.948;2022-12-18T01:05:13;102805.78;;;16.44;44.33
59190;BME280;50749;51.636;4.948;2022-12-18T01:07:41;102812.41;;;16.43;44.35
59190;BME280;50749;51.636;4.948;2022-12-18T01:10:08;102819.88;;;16.43;44.46
59190;BME280;50749;51.636;4.948;2022-12-18T01:12:35;102829.28;;;16.42;44.41
59190;BME280;50749;51.636;4.948;2022-12-18T01:15:01;102811.38;;;16.39;44.05
59190;BME280;50749;51.636;4.948;2022-12-18T01:17:28;102819.97;;;16.38;44.05
59190;BME280;50749;51.636;4.948;2022-12-18T01:19:54;102818.31;;;16.37;44.07
59190;BME280;50749;51.636;4.948;2022-12-18T01:22:20;102814.22;;;16.34;44.30
59190;BME280;50749;51.636;4.948;2022-12-18T01:24:46;102803.78;;;16.31;44.48
59190;BME280;50749;51.636;4.948;2022-12-18T01:27:12;102809.28;;;16.31;44.11
59190;BME280;50749;51.636;4.948;2022-12-18T01:29:37;102804.06;;;16.29;44.08
59190;BME280;50749;51.636;4.948;2022-12-18T01:32:04;102811.84;;;16.27;44.12
59190;BME280;50749;51.636;4.948;2022-12-18T01:34:29;102819.56;;;16.25;44.34
59190;BME280;50749;51.636;4.948;2022-12-18T01:36:56;102816.00;;;16.25;44.26
59190;BME280;50749;51.636;4.948;2022-12-18T01:39:22;102810.78;;;16.23;43.92
59190;BME280;50749;51.636;4.948;2022-12-18T01:41:48;102806.06;;;16.24;44.01
59190;BME280;50749;51.636;4.948;2022-12-18T01:44:59;102804.75;;;16.21;44.17
59190;BME280;50749;51.636;4.948;2022-12-18T01:47:33;102808.59;;;16.20;43.92
59190;BME280;50749;51.636;4.948;2022-12-18T01:50:24;102807.28;;;16.18;43.83
59190;BME280;50749;51.636;4.948;2022-12-18T01:52:55;102809.19;;;16.17;43.89
59190;BME280;50749;51.636;4.948;2022-12-18T01:55:24;102806.22;;;16.13;43.88
59190;BME280;50749;51.636;4.948;2022-12-18T01:57:56;102801.84;;;16.12;43.61
59190;BME280;50749;51.636;4.948;2022-12-18T02:00:23;102811.22;;;16.11;43.68
59190;BME280;50749;51.636;4.948;2022-12-18T02:02:50;102813.97;;;16.11;43.93
59190;BME280;50749;51.636;4.948;2022-12-18T02:11:04;102814.88;;;16.07;43.74
59190;BME280;50749;51.636;4.948;2022-12-18T02:13:37;102810.50;;;16.06;43.69
59190;BME280;50749;51.636;4.948;2022-12-18T02:16:23;102808.84;;;16.05;43.68
59190;BME280;50749;51.636;4.948;2022-12-18T02:18:58;102805.56;;;16.03;43.70
59190;BME280;50749;51.636;4.948;2022-12-18T02:27:09;102797.88;;;16.00;43.64
59190;BME280;50749;51.636;4.948;2022-12-18T02:32:14;102801.22;;;15.96;43.38
59190;BME280;50749;51.636;4.948;2022-12-18T02:34:43;102801.50;;;15.95;43.75
59190;BME280;50749;51.636;4.948;2022-12-18T02:37:13;102788.00;;;15.93;43.42
59190;BME280;50749;51.636;4.948;2022-12-18T02:39:42;102786.41;;;15.92;43.63
59190;BME280;50749;51.636;4.948;2022-12-18T02:42:10;102779.22;;;15.91;43.34
59190;BME280;50749;51.636;4.948;2022-12-18T02:44:44;102783.13;;;15.90;43.10
59190;BME280;50749;51.636;4.948;2022-12-18T02:47:12;102778.41;;;15.91;43.52
59190;BME280;50749;51.636;4.948;2022-12-18T02:49:57;102786.19;;;15.89;43.61
59190;BME280;50749;51.636;4.948;2022-12-18T02:52:35;102789.22;;;15.87;43.39
59190;BME280;50749;51.636;4.948;2022-12-18T02:57:44;102775.72;;;15.86;43.24
59190;BME280;50749;51.636;4.948;2022-12-18T03:00:21;102767.75;;;15.84;43.29
59190;BME280;50749;51.636;4.948;2022-12-18T03:02:54;102762.22;;;15.84;43.48
59190;BME280;50749;51.636;4.948;2022-12-18T03:05:27;102761.72;;;15.82;43.28
59190;BME280;50749;51.636;4.948;2022-12-18T03:08:08;102760.88;;;15.82;43.33
59190;BME280;50749;51.636;4.948;2022-12-18T03:10:42;102768.34;;;15.81;43.21
59190;BME280;50749;51.636;4.948;2022-12-18T03:13:17;102761.16;;;15.80;42.96
59190;BME280;50749;51.636;4.948;2022-12-18T03:15:49;102757.91;;;15.78;42.93
59190;BME280;50749;51.636;4.948;2022-12-18T03:18:26;102763.41;;;15.78;43.29
59190;BME280;50749;51.636;4.948;2022-12-18T03:20:58;102764.53;;;15.77;42.87
59190;BME280;50749;51.636;4.948;2022-12-18T03:23:30;102766.47;;;15.76;43.18
59190;BME280;50749;51.636;4.948;2022-12-18T03:26:02;102765.66;;;15.76;42.91
59190;BME280;50749;51.636;4.948;2022-12-18T03:28:32;102763.97;;;15.75;43.05
59190;BME280;50749;51.636;4.948;2022-12-18T03:31:02;102754.88;;;15.74;42.94
59190;BME280;50749;51.636;4.948;2022-12-18T03:33:35;102756.00;;;15.73;43.25
59190;BME280;50749;51.636;4.948;2022-12-18T03:36:03;102748.34;;;15.70;43.08
59190;BME280;50749;51.636;4.948;2022-12-18T03:38:29;102740.88;;;15.71;42.85
59190;BME280;50749;51.636;4.948;2022-12-18T03:41:04;102740.06;;;15.70;42.76
59190;BME280;50749;51.636;4.948;2022-12-18T03:43:49;102735.66;;;15.69;43.13
59190;BME280;50749;51.636;4.948;2022-12-18T03:46:45;102730.44;;;15.68;42.86
59190;BME280;50749;51.636;4.948;2022-12-18T03:52:12;102727.16;;;15.66;43.12
59190;BME280;50749;51.636;4.948;2022-12-18T03:54:40;102727.69;;;15.68;43.02
59190;BME280;50749;51.636;4.948;2022-12-18T03:57:13;102721.56;;;15.71;43.14
59190;BME280;50749;51.636;4.948;2022-12-18T03:59:40;102722.91;;;15.73;42.98
59190;BME280;50749;51.636;4.948;2022-12-18T04:02:07;102724.56;;;15.74;43.10
59190;BME280;50749;51.636;4.948;2022-12-18T04:04:35;102710.50;;;15.76;43.06
59190;BME280;50749;51.636;4.948;2022-12-18T04:07:04;102704.69;;;15.77;43.27
59190;BME280;50749;51.636;4.948;2022-12-18T04:09:32;102700.28;;;15.76;43.00
59190;BME280;50749;51.636;4.948;2022-12-18T04:11:58;102712.97;;;15.77;42.85
59190;BME280;50749;51.636;4.948;2022-12-18T04:14:24;102716.53;;;15.78;42.87
59190;BME280;50749;51.636;4.948;2022-12-18T04:16:50;102716.53;;;15.78;42.70
59190;BME280;50749;51.636;4.948;2022-12-18T04:19:16;102718.47;;;15.77;42.56
59190;BME280;50749;51.636;4.948;2022-12-18T04:21:42;102716.00;;;15.76;42.63
59190;BME280;50749;51.636;4.948;2022-12-18T04:24:08;102725.34;;;15.75;42.45
59190;BME280;50749;51.636;4.948;2022-12-18T04:26:34;102728.13;;;15.75;42.39
59190;BME280;50749;51.636;4.948;2022-12-18T04:28:59;102732.81;;;15.74;42.32
59190;BME280;50749;51.636;4.948;2022-12-18T04:31:26;102728.41;;;15.73;42.18
59190;BME280;50749;51.636;4.948;2022-12-18T04:33:51;102728.75;;;15.72;42.34
59190;BME280;50749;51.636;4.948;2022-12-18T04:36:18;102735.34;;;15.71;42.45
59190;BME280;50749;51.636;4.948;2022-12-18T04:38:44;102732.91;;;15.69;42.24
59190;BME280;50749;51.636;4.948;2022-12-18T04:41:10;102738.69;;;15.68;42.42
59190;BME280;50749;51.636;4.948;2022-12-18T04:43:35;102735.13;;;15.67;41.99
59190;BME280;50749;51.636;4.948;2022-12-18T04:46:06;102745.31;;;15.67;42.20
59190;BME280;50749;51.636;4.948;2022-12-18T04:48:33;102747.56;;;15.65;42.00
59190;BME280;50749;51.636;4.948;2022-12-18T04:50:59;102745.94;;;15.64;42.10
59190;BME280;50749;51.636;4.948;2022-12-18T04:53:25;102733.25;;;15.63;42.01
59190;BME280;50749;51.636;4.948;2022-12-18T04:56:03;102736.31;;;15.61;42.08
59190;BME280;50749;51.636;4.948;2022-12-18T04:58:28;102729.16;;;15.60;42.20
59190;BME280;50749;51.636;4.948;2022-12-18T05:00:54;102725.56;;;15.59;42.29
59190;BME280;50749;51.636;4.948;2022-12-18T05:03:20;102724.47;;;15.60;42.09
59190;BME280;50749;51.636;4.948;2022-12-18T05:05:50;102730.78;;;15.61;42.27
59190;BME280;50749;51.636;4.948;2022-12-18T05:08:17;102733.25;;;15.63;42.66
59190;BME280;50749;51.636;4.948;2022-12-18T05:10:43;102734.06;;;15.63;42.33
59190;BME280;50749;51.636;4.948;2022-12-18T05:13:09;102736.53;;;15.65;42.10
59190;BME280;50749;51.636;4.948;2022-12-18T05:15:35;102739.81;;;15.67;42.57
59190;BME280;50749;51.636;4.948;2022-12-18T05:18:01;102737.91;;;15.67;42.38
59190;BME280;50749;51.636;4.948;2022-12-18T05:20:28;102738.41;;;15.69;42.56
59190;BME280;50749;51.636;4.948;2022-12-18T05:22:54;102740.06;;;15.70;42.39
59190;BME280;50749;51.636;4.948;2022-12-18T05:25:21;102737.81;;;15.72;42.36
59190;BME280;50749;51.636;4.948;2022-12-18T05:27:48;102735.88;;;15.73;42.60
59190;BME280;50749;51.636;4.948;2022-12-18T05:30:14;102739.44;;;15.73;42.29
59190;BME280;50749;51.636;4.948;2022-12-18T05:32:40;102739.16;;;15.75;42.43
59190;BME280;50749;51.636;4.948;2022-12-18T05:35:08;102740.03;;;15.75;42.41
59190;BME280;50749;51.636;4.948;2022-12-18T05:37:34;102731.75;;;15.75;42.38
59190;BME280;50749;51.636;4.948;2022-12-18T05:40:01;102728.13;;;15.75;42.24
59190;BME280;50749;51.636;4.948;2022-12-18T05:42:27;102729.25;;;15.74;41.65
59190;BME280;50749;51.636;4.948;2022-12-18T05:44:53;102720.47;;;15.72;41.72
59190;BME280;50749;51.636;4.948;2022-12-18T05:47:19;102721.56;;;15.71;41.80
59190;BME280;50749;51.636;4.948;2022-12-18T05:49:45;102719.91;;;15.70;41.45
59190;BME280;50749;51.636;4.948;2022-12-18T05:52:12;102723.25;;;15.67;41.53
59190;BME280;50749;51.636;4.948;2022-12-18T05:54:38;102720.00;;;15.65;41.68
59190;BME280;50749;51.636;4.948;2022-12-18T05:57:04;102719.19;;;15.64;41.51
59190;BME280;50749;51.636;4.948;2022-12-18T05:59:30;102720.28;;;15.63;41.55
59190;BME280;50749;51.636;4.948;2022-12-18T06:01:56;102734.38;;;15.61;41.49
59190;BME280;50749;51.636;4.948;2022-12-18T06:04:22;102728.84;;;15.61;41.42
59190;BME280;50749;51.636;4.948;2022-12-18T06:06:48;102727.22;;;15.60;41.71
59190;BME280;50749;51.636;4.948;2022-12-18T06:09:14;102723.34;;;15.61;41.79
59190;BME280;50749;51.636;4.948;2022-12-18T06:11:40;102719.47;;;15.63;41.94
59190;BME280;50749;51.636;4.948;2022-12-18T06:14:06;102719.19;;;15.64;41.79
59190;BME280;50749;51.636;4.948;2022-12-18T06:16:32;102709.81;;;15.65;42.02
59190;BME280;50749;51.636;4.948;2022-12-18T06:18:59;102697.34;;;15.68;41.47
59190;BME280;50749;51.636;4.948;2022-12-18T06:21:26;102707.78;;;15.71;41.57
59190;BME280;50749;51.636;4.948;2022-12-18T06:23:53;102705.78;;;15.76;41.20
59190;BME280;50749;51.636;4.948;2022-12-18T06:26:18;102694.69;;;15.82;41.07
59190;BME280;50749;51.636;4.948;2022-12-18T06:28:44;102697.06;;;15.88;40.95
59190;BME280;50749;51.636;4.948;2022-12-18T06:31:10;102695.88;;;15.94;40.72
59190;BME280;50749;51.636;4.948;2022-12-18T06:33:38;102694.69;;;16.01;41.07
59190;BME280;50749;51.636;4.948;2022-12-18T06:36:06;102684.69;;;16.05;40.50
59190;BME280;50749;51.636;4.948;2022-12-18T06:38:34;102684.59;;;16.10;40.76
59190;BME280;50749;51.636;4.948;2022-12-18T06:41:15;102680.13;;;16.14;40.09
59190;BME280;50749;51.636;4.948;2022-12-18T06:43:41;102683.31;;;16.21;40.06
59190;BME280;50749;51.636;4.948;2022-12-18T06:46:08;102682.94;;;16.28;40.09
59190;BME280;50749;51.636;4.948;2022-12-18T06:48:34;102692.78;;;16.34;40.36
59190;BME280;50749;51.636;4.948;2022-12-18T06:51:00;102679.69;;;16.40;40.84
59190;BME280;50749;51.636;4.948;2022-12-18T06:53:26;102680.41;;;16.45;41.09
59190;BME280;50749;51.636;4.948;2022-12-18T06:55:58;102685.84;;;16.50;40.66
59190;BME280;50749;51.636;4.948;2022-12-18T06:58:24;102673.91;;;16.55;41.37
59190;BME280;50749;51.636;4.948;2022-12-18T07:00:50;102677.66;;;16.59;41.79
59190;BME280;50749;51.636;4.948;2022-12-18T07:03:16;102676.47;;;16.65;41.08
59190;BME280;50749;51.636;4.948;2022-12-18T07:05:45;102661.75;;;16.70;41.41
59190;BME280;50749;51.636;4.948;2022-12-18T07:08:11;102663.91;;;16.73;41.66
59190;BME280;50749;51.636;4.948;2022-12-18T07:10:43;102656.63;;;16.77;41.08
59190;BME280;50749;51.636;4.948;2022-12-18T07:13:09;102645.28;;;16.79;41.39
59190;BME280;50749;51.636;4.948;2022-12-18T07:15:35;102645.78;;;16.81;41.44
59190;BME280;50749;51.636;4.948;2022-12-18T07:18:02;102638.84;;;16.83;41.04
59190;BME280;50749;51.636;4.948;2022-12-18T07:20:27;102637.44;;;16.86;40.99
59190;BME280;50749;51.636;4.948;2022-12-18T07:22:54;102637.13;;;16.87;40.82
59190;BME280;50749;51.636;4.948;2022-12-18T07:25:19;102635.41;;;16.92;41.15
59190;BME280;50749;51.636;4.948;2022-12-18T07:27:45;102629.56;;;16.93;41.24
59190;BME280;50749;51.636;4.948;2022-12-18T07:30:11;102612.34;;;16.96;41.43
59190;BME280;50749;51.636;4.948;2022-12-18T07:32:37;102616.16;;;17.00;41.55
59190;BME280;50749;51.636;4.948;2022-12-18T07:35:03;102606.22;;;16.99;41.51
59190;BME280;50749;51.636;4.948;2022-12-18T07:37:29;102595.28;;;16.94;39.57
59190;BME280;50749;51.636;4.948;2022-12-18T07:39:56;102590.88;;;16.93;39.76
59190;BME280;50749;51.636;4.948;2022-12-18T07:42:22;102586.16;;;16.94;39.61
59190;BME280;50749;51.636;4.948;2022-12-18T07:45:00;102588.63;;;16.95;39.96
59190;BME280;50749;51.636;4.948;2022-12-18T07:47:28;102585.25;;;16.98;39.92
59190;BME280;50749;51.636;4.948;2022-12-18T07:49:53;102600.38;;;17.01;40.25
59190;BME280;50749;51.636;4.948;2022-12-18T07:52:20;102600.06;;;17.02;39.90
59190;BME280;50749;51.636;4.948;2022-12-18T07:54:45;102609.69;;;17.05;40.49
59190;BME280;50749;51.636;4.948;2022-12-18T07:57:14;102609.09;;;17.08;40.48
59190;BME280;50749;51.636;4.948;2022-12-18T07:59:41;102601.59;;;17.08;40.28
59190;BME280;50749;51.636;4.948;2022-12-18T08:02:07;102594.63;;;17.11;40.53
59190;BME280;50749;51.636;4.948;2022-12-18T08:04:32;102589.31;;;17.15;41.26
59190;BME280;50749;51.636;4.948;2022-12-18T08:06:58;102597.50;;;17.20;41.19
59190;BME280;50749;51.636;4.948;2022-12-18T08:09:24;102604.53;;;17.26;41.81
59190;BME280;50749;51.636;4.948;2022-12-18T08:11:50;102601.34;;;17.33;41.93
59190;BME280;50749;51.636;4.948;2022-12-18T08:14:16;102603.19;;;17.37;42.40
59190;BME280;50749;51.636;4.948;2022-12-18T08:16:43;102600.59;;;17.41;42.19
59190;BME280;50749;51.636;4.948;2022-12-18T08:19:08;102590.88;;;17.43;42.38
59190;BME280;50749;51.636;4.948;2022-12-18T08:21:34;102585.22;;;17.49;42.51
59190;BME280;50749;51.636;4.948;2022-12-18T08:24:01;102589.28;;;17.51;42.76
59190;BME280;50749;51.636;4.948;2022-12-18T08:26:29;102584.78;;;17.55;42.90
59190;BME280;50749;51.636;4.948;2022-12-18T08:28:57;102584.97;;;17.59;43.38
59190;BME280;50749;51.636;4.948;2022-12-18T08:31:24;102588.25;;;17.61;43.30
59190;BME280;50749;51.636;4.948;2022-12-18T08:33:51;102580.94;;;17.65;43.77
59190;BME280;50749;51.636;4.948;2022-12-18T08:36:20;102581.97;;;17.69;43.51
59190;BME280;50749;51.636;4.948;2022-12-18T08:38:46;102574.66;;;17.73;43.61
59190;BME280;50749;51.636;4.948;2022-12-18T08:41:14;102561.53;;;17.79;43.38
59190;BME280;50749;51.636;4.948;2022-12-18T08:43:40;102562.22;;;17.85;44.51
59190;BME280;50749;51.636;4.948;2022-12-18T08:46:26;102560.50;;;17.89;44.49
59190;BME280;50749;51.636;4.948;2022-12-18T08:48:53;102572.53;;;17.93;44.41
59190;BME280;50749;51.636;4.948;2022-12-18T08:51:22;102573.22;;;17.98;44.02
59190;BME280;50749;51.636;4.948;2022-12-18T08:53:51;102582.53;;;18.03;43.80
59190;BME280;50749;51.636;4.948;2022-12-18T08:56:17;102600.75;;;18.04;43.97
59190;BME280;50749;51.636;4.948;2022-12-18T08:58:43;102609.28;;;18.07;43.91
59190;BME280;50749;51.636;4.948;2022-12-18T09:01:11;102608.13;;;18.08;44.26
59190;BME280;50749;51.636;4.948;2022-12-18T09:03:37;102603.41;;;18.09;43.64
59190;BME280;50749;51.636;4.948;2022-12-18T09:06:04;102599.00;;;18.08;43.57
59190;BME280;50749;51.636;4.948;2022-12-18T09:08:30;102602.59;;;18.08;43.35
59190;BME280;50749;51.636;4.948;2022-12-18T09:10:56;102595.44;;;18.07;44.68
59190;BME280;50749;51.636;4.948;2022-12-18T09:13:22;102587.94;;;18.08;43.84
59190;BME280;50749;51.636;4.948;2022-12-18T09:15:50;102585.66;;;18.10;44.05
59190;BME280;50749;51.636;4.948;2022-12-18T09:18:18;102579.00;;;18.11;42.85
59190;BME280;50749;51.636;4.948;2022-12-18T09:20:45;102590.25;;;18.14;43.76
59190;BME280;50749;51.636;4.948;2022-12-18T09:23:11;102594.31;;;18.17;43.78
59190;BME280;50749;51.636;4.948;2022-12-18T09:25:38;102588.16;;;18.20;43.96
59190;BME280;50749;51.636;4.948;2022-12-18T09:28:12;102569.09;;;18.18;43.31
59190;BME280;50749;51.636;4.948;2022-12-18T09:30:39;102567.97;;;18.19;43.62
59190;BME280;50749;51.636;4.948;2022-12-18T09:33:06;102557.53;;;18.16;44.44
59190;BME280;50749;51.636;4.948;2022-12-18T09:35:39;102558.81;;;18.10;44.10
59190;BME280;50749;51.636;4.948;2022-12-18T09:38:05;102565.81;;;18.08;44.12
59190;BME280;50749;51.636;4.948;2022-12-18T09:40:45;102560.09;;;18.04;44.69
59190;BME280;50749;51.636;4.948;2022-12-18T09:43:19;102561.22;;;18.03;44.23
59190;BME280;50749;51.636;4.948;2022-12-18T09:45:51;102548.84;;;18.00;43.61
59190;BME280;50749;51.636;4.948;2022-12-18T09:48:23;102554.38;;;18.00;43.85
59190;BME280;50749;51.636;4.948;2022-12-18T09:50:54;102566.56;;;17.99;44.26
59190;BME280;50749;51.636;4.948;2022-12-18T09:53:25;102575.31;;;17.93;44.15
59190;BME280;50749;51.636;4.948;2022-12-18T09:55:53;102574.41;;;17.83;42.21
59190;BME280;50749;51.636;4.948;2022-12-18T09:58:45;102564.13;;;17.75;43.51
59190;BME280;50749;51.636;4.948;2022-12-18T10:01:17;102558.38;;;17.72;44.08
59190;BME280;50749;51.636;4.948;2022-12-18T10:03:43;102564.03;;;17.67;44.64
59190;BME280;50749;51.636;4.948;2022-12-18T10:09:27;102567.25;;;17.60;44.86
59190;BME280;50749;51.636;4.948;2022-12-18T10:17:42;102537.97;;;17.59;45.23
59190;BME280;50749;51.636;4.948;2022-12-18T10:20:20;102534.06;;;17.60;45.03
59190;BME280;50749;51.636;4.948;2022-12-18T10:23:05;102531.28;;;17.60;45.05
59190;BME280;50749;51.636;4.948;2022-12-18T10:25:34;102515.00;;;17.58;44.96
59190;BME280;50749;51.636;4.948;2022-12-18T10:28:13;102506.41;;;17.60;45.03
59190;BME280;50749;51.636;4.948;2022-12-18T10:30:41;102507.25;;;17.60;45.10
59190;BME280;50749;51.636;4.948;2022-12-18T10:33:14;102492.56;;;17.60;44.95
59190;BME280;50749;51.636;4.948;2022-12-18T10:35:42;102496.50;;;17.59;44.57
59190;BME280;50749;51.636;4.948;2022-12-18T10:43:33;102490.97;;;17.59;44.47
59190;BME280;50749;51.636;4.948;2022-12-18T10:49:00;102488.81;;;17.56;44.78
59190;BME280;50749;51.636;4.948;2022-12-18T10:51:30;102483.28;;;17.56;44.56
59190;BME280;50749;51.636;4.948;2022-12-18T10:54:01;102487.16;;;17.55;44.70
59190;BME280;50749;51.636;4.948;2022-12-18T10:56:29;102494.16;;;17.52;44.47
59190;BME280;50749;51.636;4.948;2022-12-18T10:59:07;102491.72;;;17.51;44.25
59190;BME280;50749;51.636;4.948;2022-12-18T11:01:57;102481.78;;;17.50;44.50
59190;BME280;50749;51.636;4.948;2022-12-18T11:04:27;102478.50;;;17.48;44.66
59190;BME280;50749;51.636;4.948;2022-12-18T11:07:01;102488.13;;;17.50;43.57
59190;BME280;50749;51.636;4.948;2022-12-18T11:09:30;102474.00;;;17.52;42.53
59190;BME280;50749;51.636;4.948;2022-12-18T11:12:01;102484.28;;;17.60;42.99
59190;BME280;50749;51.636;4.948;2022-12-18T11:14:42;102464.16;;;17.68;43.52
59190;BME280;50749;51.636;4.948;2022-12-18T11:17:28;102460.94;;;17.75;44.07
59190;BME280;50749;51.636;4.948;2022-12-18T11:20:00;102464.72;;;17.79;45.47
59190;BME280;50749;51.636;4.948;2022-12-18T11:22:30;102472.69;;;17.80;45.82
59190;BME280;50749;51.636;4.948;2022-12-18T11:27:25;102472.56;;;17.86;45.82
59190;BME280;50749;51.636;4.948;2022-12-18T11:32:47;102468.91;;;17.76;43.31
59190;BME280;50749;51.636;4.948;2022-12-18T11:38:37;102460.63;;;17.76;45.26
59190;BME280;50749;51.636;4.948;2022-12-18T11:44:15;102451.81;;;17.74;45.61
59190;BME280;50749;51.636;4.948;2022-12-18T11:46:51;102450.38;;;17.77;47.03
59190;BME280;50749;51.636;4.948;2022-12-18T11:49:25;102449.56;;;17.76;46.62
59190;BME280;50749;51.636;4.948;2022-12-18T11:51:58;102452.00;;;17.78;46.54
59190;BME280;50749;51.636;4.948;2022-12-18T11:54:26;102443.72;;;17.78;46.54
59190;BME280;50749;51.636;4.948;2022-12-18T11:56:57;102451.19;;;17.77;46.74
59190;BME280;50749;51.636;4.948;2022-12-18T12:02:29;102414.91;;;17.79;47.55
59190;BME280;50749;51.636;4.948;2022-12-18T12:08:02;102405.66;;;17.83;47.23
59190;BME280;50749;51.636;4.948;2022-12-18T12:13:22;102389.16;;;18.01;48.97
59190;BME280;50749;51.636;4.948;2022-12-18T12:18:55;102384.81;;;18.26;48.69
59190;BME280;50749;51.636;4.948;2022-12-18T12:32:20;102361.38;;;18.50;47.24
59190;BME280;50749;51.636;4.948;2022-12-18T12:39:52;102362.84;;;18.47;46.77
59190;BME280;50749;51.636;4.948;2022-12-18T12:45:26;102364.78;;;18.47;48.55
59190;BME280;50749;51.636;4.948;2022-12-18T12:47:54;102359.59;;;18.45;47.00
59190;BME280;50749;51.636;4.948;2022-12-18T12:50:23;102353.06;;;18.41;46.38
59190;BME280;50749;51.636;4.948;2022-12-18T12:52:52;102357.28;;;18.38;46.58
59190;BME280;50749;51.636;4.948;2022-12-18T12:55:23;102359.91;;;18.35;46.19
59190;BME280;50749;51.636;4.948;2022-12-18T12:58:14;102357.78;;;18.32;46.87
59190;BME280;50749;51.636;4.948;2022-12-18T13:06:35;102342.97;;;18.28;47.26
59190;BME280;50749;51.636;4.948;2022-12-18T13:08:59;102338.06;;;18.33;48.35
59190;BME280;50749;51.636;4.948;2022-12-18T13:11:41;102333.84;;;18.36;47.85
59190;BME280;50749;51.636;4.948;2022-12-18T13:14:34;102336.94;;;18.43;47.99
59190;BME280;50749;51.636;4.948;2022-12-18T13:19:51;102341.84;;;18.55;48.22
59190;BME280;50749;51.636;4.948;2022-12-18T13:22:29;102327.00;;;18.60;48.57
59190;BME280;50749;51.636;4.948;2022-12-18T13:24:56;102322.44;;;18.64;47.80
59190;BME280;50749;51.636;4.948;2022-12-18T13:27:46;102313.00;;;18.65;47.52
59190;BME280;50749;51.636;4.948;2022-12-18T13:35:51;102311.69;;;18.62;47.65
59190;BME280;50749;51.636;4.948;2022-12-18T13:41:01;102303.22;;;18.59;49.04
59190;BME280;50749;51.636;4.948;2022-12-18T13:43:51;102303.72;;;18.52;47.44
59190;BME280;50749;51.636;4.948;2022-12-18T13:49:28;102301.13;;;18.38;48.62
59190;BME280;50749;51.636;4.948;2022-12-18T13:51:53;102284.19;;;18.31;48.78
59190;BME280;50749;51.636;4.948;2022-12-18T13:54:38;102278.13;;;18.29;47.91
59190;BME280;50749;51.636;4.948;2022-12-18T13:57:12;102283.19;;;18.18;47.69
59190;BME280;50749;51.636;4.948;2022-12-18T13:59:51;102291.97;;;18.11;47.81
59190;BME280;50749;51.636;4.948;2022-12-18T14:02:21;102290.34;;;18.10;48.52
59190;BME280;50749;51.636;4.948;2022-12-18T14:04:48;102287.56;;;18.10;49.26
59190;BME280;50749;51.636;4.948;2022-12-18T14:07:17;102287.09;;;18.08;48.91
59190;BME280;50749;51.636;4.948;2022-12-18T14:09:50;102286.78;;;18.10;49.61
59190;BME280;50749;51.636;4.948;2022-12-18T14:12:21;102289.22;;;18.11;49.90
59190;BME280;50749;51.636;4.948;2022-12-18T14:20:58;102287.41;;;18.15;50.80
59190;BME280;50749;51.636;4.948;2022-12-18T14:23:34;102288.72;;;18.18;50.70
59190;BME280;50749;51.636;4.948;2022-12-18T14:26:17;102297.19;;;18.22;50.59
59190;BME280;50749;51.636;4.948;2022-12-18T14:28:46;102291.66;;;18.22;49.67
59190;BME280;50749;51.636;4.948;2022-12-18T14:31:28;102284.50;;;18.20;49.90
59190;BME280;50749;51.636;4.948;2022-12-18T14:33:54;102282.56;;;18.21;50.56
59190;BME280;50749;51.636;4.948;2022-12-18T14:36:26;102275.38;;;18.20;50.75
59190;BME280;50749;51.636;4.948;2022-12-18T14:38:56;102276.19;;;18.20;50.66
59190;BME280;50749;51.636;4.948;2022-12-18T14:41:23;102277.00;;;18.21;50.60
59190;BME280;50749;51.636;4.948;2022-12-18T14:43:51;102278.47;;;18.18;50.49
59190;BME280;50749;51.636;4.948;2022-12-18T14:46:36;102274.09;;;18.17;50.58
59190;BME280;50749;51.636;4.948;2022-12-18T14:49:03;102266.44;;;18.14;50.95